• Join FlightAware (Why Join?)
  • Login
  • US Flag 
02:12AM EST


 

Airport Tracker/Info


-or-


 

Live Flight TrackerFlight Track Log ✈ SKW5500 ✈ 21-Apr-2013 ✈ KDEN - KASE

Flight Track Log - Related Links

Times and Time Zones

All times are in EDT time to prevent confusion due to time zone crossing. See the SKW5500 flight status page for this flight to view local times or setup timezone preferences in your user account.

Time Position Orientation Groundspeed Altitude Reporting Facility
EDT Latitude Longitude Course Direction KTS MPH feet Rate Location/Type
05:35PM 39.8333 -104.8000 254° West 233 268 8,300  Level Denver TRACON
05:37PM 39.8333 -104.9000 270° West 277 319 10,400 2,100 Climbing Denver TRACON
05:37PM 39.8333 -104.9833 270° West 292 336 12,300 2,700 Climbing Denver TRACON
05:38PM 39.7707 -105.1491 259° West  Level FlightAware Approximate
05:38PM 39.8222 -105.0233 250° West 291 335 13,600  Level Denver Center
05:39PM 39.7520 -105.2703 259° West  Level FlightAware Approximate
05:39PM 39.8011 -105.1350 256° West 299 344 16,800  Level Denver Center
05:40PM 39.7376 -105.3914 255° West  Level FlightAware Approximate
05:40PM 39.7817 -105.2364 256° West 293 337 19,100  Level Denver Center
05:41PM 39.7121 -105.5104 254° West  Level FlightAware Approximate
05:41PM 39.7608 -105.3428 256° West 304 350 20,900  Level Denver Center
05:42PM 39.7375 -105.4597 255° West 311 358 22,000 480 Climbing Denver Center
05:43PM 39.7194 -105.5875 260° West 360 414 22,000  Level Denver Center
05:44PM 39.7022 -105.7275 261° West 362 417 22,000  Level Denver Center
05:45PM 39.6853 -105.8550 260° West 348 400 22,000  Level Denver Center
05:46PM 39.6694 -105.9814 261° West 352 405 22,000 -360 Level Denver Center
05:47PM 39.6528 -106.1047 260° West 346 398 21,300 -1,080 Descending Denver Center
05:48PM 39.6375 -106.2331 261° West 332 382 19,800 -1,380 Descending Denver Center
05:49PM 39.6211 -106.3439 259° West 316 364 18,500 -1,260 Descending Denver Center
05:50PM 39.5964 -106.4517 253° West 311 358 17,300 -1,080 Descending Denver Center
05:51PM 39.5719 -106.5636 254° West 299 344 16,300 -720 Descending Denver Center
05:52PM 39.5517 -106.6553 254° West 280 322 15,900 -540 Descending Denver Center
05:53PM 39.5378 -106.7289 256° West 267 307 15,300 -1,020 Descending Denver Center
05:54PM 39.5178 -106.8431 257° West 245 282 13,900 -720 Descending Denver Center
05:55PM 39.5033 -106.9139 255° West 205 236 13,900 -60 Level Denver Center
05:56PM 39.4731 -106.9622 231° Southwest 186 214 13,800 -300 Descending Denver Center
05:57PM 39.4247 -106.9664 184° South 186 214 13,300 -780 Descending Denver Center
05:58PM 39.3736 -106.9414 159° South 178 205 12,300 -1,260 Descending Denver Center
05:59PM 39.3283 -106.9203 160° South 175 201 10,700 -1,560 Descending Denver Center